sensor_id;sensor_type;location;lat;lon;timestamp;P1;durP1;ratioP1;P2;durP2;ratioP2
826;SDS011;395;48.132;11.608;2022-12-22T00:01:35;4.43;;;1.87;;
826;SDS011;395;48.132;11.608;2022-12-22T00:04:20;1.87;;;1.77;;
826;SDS011;395;48.132;11.608;2022-12-22T00:07:04;2.27;;;2.07;;
826;SDS011;395;48.132;11.608;2022-12-22T00:09:48;1.70;;;1.60;;
826;SDS011;395;48.132;11.608;2022-12-22T00:12:33;2.70;;;2.30;;
826;SDS011;395;48.132;11.608;2022-12-22T00:15:18;3.27;;;2.30;;
826;SDS011;395;48.132;11.608;2022-12-22T00:18:02;2.70;;;2.50;;
826;SDS011;395;48.132;11.608;2022-12-22T00:20:47;2.23;;;2.03;;
826;SDS011;395;48.132;11.608;2022-12-22T00:23:33;2.07;;;1.87;;
826;SDS011;395;48.132;11.608;2022-12-22T00:26:17;1.80;;;1.70;;
826;SDS011;395;48.132;11.608;2022-12-22T00:29:02;2.30;;;2.10;;
826;SDS011;395;48.132;11.608;2022-12-22T00:31:47;2.50;;;2.30;;
826;SDS011;395;48.132;11.608;2022-12-22T00:34:40;2.87;;;1.87;;
826;SDS011;395;48.132;11.608;2022-12-22T00:37:32;1.90;;;1.80;;
826;SDS011;395;48.132;11.608;2022-12-22T00:40:18;2.10;;;1.80;;
826;SDS011;395;48.132;11.608;2022-12-22T00:43:04;1.97;;;1.47;;
826;SDS011;395;48.132;11.608;2022-12-22T00:45:49;3.23;;;1.77;;
826;SDS011;395;48.132;11.608;2022-12-22T00:48:35;2.30;;;1.60;;
826;SDS011;395;48.132;11.608;2022-12-22T00:51:20;2.08;;;1.88;;
826;SDS011;395;48.132;11.608;2022-12-22T00:54:09;1.90;;;1.80;;
826;SDS011;395;48.132;11.608;2022-12-22T00:56:54;1.65;;;1.55;;
826;SDS011;395;48.132;11.608;2022-12-22T00:59:38;2.97;;;1.77;;
826;SDS011;395;48.132;11.608;2022-12-22T01:02:23;2.38;;;2.10;;
826;SDS011;395;48.132;11.608;2022-12-22T01:05:07;2.42;;;1.60;;
826;SDS011;395;48.132;11.608;2022-12-22T01:07:52;1.50;;;1.40;;
826;SDS011;395;48.132;11.608;2022-12-22T01:10:37;1.45;;;1.35;;
826;SDS011;395;48.132;11.608;2022-12-22T01:13:21;1.90;;;1.58;;
826;SDS011;395;48.132;11.608;2022-12-22T01:16:08;1.63;;;1.40;;
826;SDS011;395;48.132;11.608;2022-12-22T01:18:53;1.95;;;1.75;;
826;SDS011;395;48.132;11.608;2022-12-22T01:21:38;1.70;;;1.60;;
826;SDS011;395;48.132;11.608;2022-12-22T01:24:22;1.70;;;1.60;;
826;SDS011;395;48.132;11.608;2022-12-22T01:27:08;2.45;;;1.50;;
826;SDS011;395;48.132;11.608;2022-12-22T01:29:53;1.70;;;1.60;;
826;SDS011;395;48.132;11.608;2022-12-22T01:32:37;1.60;;;1.50;;
826;SDS011;395;48.132;11.608;2022-12-22T01:35:24;1.88;;;1.58;;
826;SDS011;395;48.132;11.608;2022-12-22T01:38:11;2.07;;;1.50;;
826;SDS011;395;48.132;11.608;2022-12-22T01:40:55;2.10;;;1.50;;
826;SDS011;395;48.132;11.608;2022-12-22T01:43:41;1.90;;;1.43;;
826;SDS011;395;48.132;11.608;2022-12-22T01:49:16;1.95;;;1.55;;
826;SDS011;395;48.132;11.608;2022-12-22T01:52:04;3.22;;;1.70;;
826;SDS011;395;48.132;11.608;2022-12-22T01:54:50;2.10;;;1.90;;
826;SDS011;395;48.132;11.608;2022-12-22T01:57:37;1.83;;;1.47;;
826;SDS011;395;48.132;11.608;2022-12-22T02:00:21;1.90;;;1.50;;
826;SDS011;395;48.132;11.608;2022-12-22T02:03:21;1.75;;;1.65;;
826;SDS011;395;48.132;11.608;2022-12-22T02:06:13;1.95;;;1.70;;
826;SDS011;395;48.132;11.608;2022-12-22T02:09:06;1.20;;;1.10;;
826;SDS011;395;48.132;11.608;2022-12-22T02:12:38;1.85;;;1.63;;
826;SDS011;395;48.132;11.608;2022-12-22T02:15:06;1.63;;;1.53;;
826;SDS011;395;48.132;11.608;2022-12-22T02:21:04;3.80;;;1.40;;
826;SDS011;395;48.132;11.608;2022-12-22T02:26:55;2.25;;;1.80;;
826;SDS011;395;48.132;11.608;2022-12-22T02:30:02;2.00;;;1.90;;
826;SDS011;395;48.132;11.608;2022-12-22T02:32:48;1.73;;;1.63;;
826;SDS011;395;48.132;11.608;2022-12-22T02:35:39;1.87;;;1.53;;
826;SDS011;395;48.132;11.608;2022-12-22T02:38:35;1.80;;;1.60;;
826;SDS011;395;48.132;11.608;2022-12-22T02:41:42;3.23;;;1.70;;
826;SDS011;395;48.132;11.608;2022-12-22T02:44:49;2.40;;;1.58;;
826;SDS011;395;48.132;11.608;2022-12-22T02:47:43;2.10;;;1.60;;
826;SDS011;395;48.132;11.608;2022-12-22T02:50:38;1.65;;;1.55;;
826;SDS011;395;48.132;11.608;2022-12-22T02:53:28;1.98;;;1.77;;
826;SDS011;395;48.132;11.608;2022-12-22T02:56:13;1.90;;;1.37;;
826;SDS011;395;48.132;11.608;2022-12-22T02:58:57;1.87;;;1.77;;
826;SDS011;395;48.132;11.608;2022-12-22T03:01:42;2.00;;;1.10;;
826;SDS011;395;48.132;11.608;2022-12-22T03:04:28;1.55;;;1.42;;
826;SDS011;395;48.132;11.608;2022-12-22T03:07:12;1.25;;;1.15;;
826;SDS011;395;48.132;11.608;2022-12-22T03:09:56;1.60;;;1.40;;
826;SDS011;395;48.132;11.608;2022-12-22T03:12:41;1.75;;;1.65;;
826;SDS011;395;48.132;11.608;2022-12-22T03:15:25;1.30;;;1.20;;
826;SDS011;395;48.132;11.608;2022-12-22T03:18:10;1.40;;;1.30;;
826;SDS011;395;48.132;11.608;2022-12-22T03:20:55;1.38;;;1.20;;
826;SDS011;395;48.132;11.608;2022-12-22T03:23:40;1.30;;;1.20;;
826;SDS011;395;48.132;11.608;2022-12-22T03:26:25;1.30;;;1.17;;
826;SDS011;395;48.132;11.608;2022-12-22T03:28:51;2.03;;;1.67;;
826;SDS011;395;48.132;11.608;2022-12-22T03:31:17;1.50;;;1.40;;
826;SDS011;395;48.132;11.608;2022-12-22T03:33:43;1.60;;;1.30;;
826;SDS011;395;48.132;11.608;2022-12-22T03:36:09;1.63;;;1.20;;
826;SDS011;395;48.132;11.608;2022-12-22T03:38:34;1.73;;;1.20;;
826;SDS011;395;48.132;11.608;2022-12-22T04:04:39;1.50;;;1.40;;
826;SDS011;395;48.132;11.608;2022-12-22T04:07:05;1.60;;;1.50;;
826;SDS011;395;48.132;11.608;2022-12-22T04:09:31;2.17;;;1.50;;
826;SDS011;395;48.132;11.608;2022-12-22T04:11:57;1.87;;;1.27;;
826;SDS011;395;48.132;11.608;2022-12-22T04:14:41;2.22;;;1.30;;
826;SDS011;395;48.132;11.608;2022-12-22T04:17:07;2.50;;;1.77;;
826;SDS011;395;48.132;11.608;2022-12-22T04:19:33;2.40;;;1.30;;
826;SDS011;395;48.132;11.608;2022-12-22T04:21:59;3.20;;;1.50;;
826;SDS011;395;48.132;11.608;2022-12-22T04:24:25;1.77;;;1.67;;
826;SDS011;395;48.132;11.608;2022-12-22T04:26:51;1.63;;;1.53;;
826;SDS011;395;48.132;11.608;2022-12-22T04:29:17;1.90;;;1.33;;
826;SDS011;395;48.132;11.608;2022-12-22T04:31:43;1.80;;;1.20;;
826;SDS011;395;48.132;11.608;2022-12-22T04:34:08;2.40;;;1.40;;
826;SDS011;395;48.132;11.608;2022-12-22T04:36:34;1.20;;;1.10;;
826;SDS011;395;48.132;11.608;2022-12-22T04:39:00;1.40;;;1.17;;
826;SDS011;395;48.132;11.608;2022-12-22T04:41:25;1.83;;;1.73;;
826;SDS011;395;48.132;11.608;2022-12-22T04:43:51;1.40;;;1.20;;
826;SDS011;395;48.132;11.608;2022-12-22T04:46:16;1.67;;;1.57;;
826;SDS011;395;48.132;11.608;2022-12-22T04:48:42;1.17;;;1.07;;
826;SDS011;395;48.132;11.608;2022-12-22T04:51:08;1.60;;;1.50;;
826;SDS011;395;48.132;11.608;2022-12-22T04:53:33;1.37;;;1.20;;
826;SDS011;395;48.132;11.608;2022-12-22T04:56:01;1.20;;;1.10;;
826;SDS011;395;48.132;11.608;2022-12-22T04:58:29;1.10;;;1.00;;
826;SDS011;395;48.132;11.608;2022-12-22T05:00:55;1.23;;;0.90;;
826;SDS011;395;48.132;11.608;2022-12-22T05:03:21;1.63;;;1.07;;
826;SDS011;395;48.132;11.608;2022-12-22T05:05:47;1.17;;;1.08;;
826;SDS011;395;48.132;11.608;2022-12-22T05:08:13;1.07;;;0.97;;
826;SDS011;395;48.132;11.608;2022-12-22T05:10:39;1.40;;;1.30;;
826;SDS011;395;48.132;11.608;2022-12-22T05:13:05;1.00;;;0.80;;
826;SDS011;395;48.132;11.608;2022-12-22T05:15:31;1.63;;;1.40;;
826;SDS011;395;48.132;11.608;2022-12-22T05:17:58;1.10;;;1.00;;
826;SDS011;395;48.132;11.608;2022-12-22T05:20:25;1.13;;;1.03;;
826;SDS011;395;48.132;11.608;2022-12-22T05:22:51;2.73;;;1.20;;
826;SDS011;395;48.132;11.608;2022-12-22T05:25:17;0.80;;;0.67;;
826;SDS011;395;48.132;11.608;2022-12-22T05:27:45;1.00;;;0.80;;
826;SDS011;395;48.132;11.608;2022-12-22T05:30:12;1.13;;;1.10;;
826;SDS011;395;48.132;11.608;2022-12-22T05:32:39;1.43;;;1.07;;
826;SDS011;395;48.132;11.608;2022-12-22T05:35:05;1.30;;;0.80;;
826;SDS011;395;48.132;11.608;2022-12-22T05:37:31;1.77;;;1.47;;
826;SDS011;395;48.132;11.608;2022-12-22T05:39:57;2.17;;;1.40;;
826;SDS011;395;48.132;11.608;2022-12-22T05:42:23;1.80;;;0.90;;
826;SDS011;395;48.132;11.608;2022-12-22T05:45:05;1.58;;;1.27;;
826;SDS011;395;48.132;11.608;2022-12-22T05:47:39;1.97;;;1.17;;
826;SDS011;395;48.132;11.608;2022-12-22T05:50:06;1.37;;;1.27;;
826;SDS011;395;48.132;11.608;2022-12-22T05:52:33;1.40;;;0.90;;
826;SDS011;395;48.132;11.608;2022-12-22T05:54:58;1.53;;;0.83;;
826;SDS011;395;48.132;11.608;2022-12-22T05:57:24;1.50;;;1.10;;
826;SDS011;395;48.132;11.608;2022-12-22T05:59:50;1.00;;;0.70;;
826;SDS011;395;48.132;11.608;2022-12-22T06:02:15;1.23;;;1.07;;
826;SDS011;395;48.132;11.608;2022-12-22T06:04:41;0.80;;;0.80;;
826;SDS011;395;48.132;11.608;2022-12-22T06:07:07;4.43;;;2.00;;
826;SDS011;395;48.132;11.608;2022-12-22T06:09:32;1.47;;;1.37;;
826;SDS011;395;48.132;11.608;2022-12-22T06:11:58;1.50;;;1.20;;
826;SDS011;395;48.132;11.608;2022-12-22T06:14:23;2.27;;;1.47;;
826;SDS011;395;48.132;11.608;2022-12-22T06:16:49;2.27;;;1.20;;
826;SDS011;395;48.132;11.608;2022-12-22T06:19:15;1.10;;;0.70;;
826;SDS011;395;48.132;11.608;2022-12-22T06:21:40;0.63;;;0.60;;
826;SDS011;395;48.132;11.608;2022-12-22T06:24:06;1.23;;;1.07;;
826;SDS011;395;48.132;11.608;2022-12-22T06:26:32;1.10;;;1.00;;
826;SDS011;395;48.132;11.608;2022-12-22T06:28:57;2.40;;;1.10;;
826;SDS011;395;48.132;11.608;2022-12-22T06:31:23;1.50;;;1.23;;
826;SDS011;395;48.132;11.608;2022-12-22T06:33:49;0.93;;;0.73;;
826;SDS011;395;48.132;11.608;2022-12-22T06:36:14;1.03;;;0.93;;
826;SDS011;395;48.132;11.608;2022-12-22T06:38:40;1.43;;;1.00;;
826;SDS011;395;48.132;11.608;2022-12-22T06:41:06;1.10;;;0.90;;
826;SDS011;395;48.132;11.608;2022-12-22T06:43:31;1.33;;;1.23;;
826;SDS011;395;48.132;11.608;2022-12-22T06:45:57;1.13;;;0.90;;
826;SDS011;395;48.132;11.608;2022-12-22T06:48:23;1.30;;;1.20;;
826;SDS011;395;48.132;11.608;2022-12-22T06:50:48;1.50;;;0.93;;
826;SDS011;395;48.132;11.608;2022-12-22T06:53:14;1.77;;;1.00;;
826;SDS011;395;48.132;11.608;2022-12-22T06:55:40;1.27;;;1.10;;
826;SDS011;395;48.132;11.608;2022-12-22T06:58:06;1.80;;;1.23;;
826;SDS011;395;48.132;11.608;2022-12-22T07:00:32;1.20;;;1.10;;
826;SDS011;395;48.132;11.608;2022-12-22T07:02:58;1.20;;;1.03;;
826;SDS011;395;48.132;11.608;2022-12-22T07:05:24;2.17;;;1.50;;
826;SDS011;395;48.132;11.608;2022-12-22T07:07:50;2.33;;;0.90;;
826;SDS011;395;48.132;11.608;2022-12-22T07:10:16;0.95;;;0.85;;
826;SDS011;395;48.132;11.608;2022-12-22T07:12:42;1.77;;;0.70;;
826;SDS011;395;48.132;11.608;2022-12-22T07:15:08;2.07;;;0.90;;
826;SDS011;395;48.132;11.608;2022-12-22T07:17:34;2.03;;;1.00;;
826;SDS011;395;48.132;11.608;2022-12-22T07:20:00;2.30;;;0.80;;
826;SDS011;395;48.132;11.608;2022-12-22T07:22:25;2.27;;;0.87;;
826;SDS011;395;48.132;11.608;2022-12-22T07:24:51;1.00;;;0.73;;
826;SDS011;395;48.132;11.608;2022-12-22T07:27:18;1.20;;;1.07;;
826;SDS011;395;48.132;11.608;2022-12-22T07:29:44;0.70;;;0.70;;
826;SDS011;395;48.132;11.608;2022-12-22T07:32:10;2.23;;;0.80;;
826;SDS011;395;48.132;11.608;2022-12-22T07:34:35;1.37;;;0.80;;
826;SDS011;395;48.132;11.608;2022-12-22T07:37:01;1.40;;;1.30;;
826;SDS011;395;48.132;11.608;2022-12-22T07:39:27;1.13;;;0.70;;
826;SDS011;395;48.132;11.608;2022-12-22T07:41:52;1.00;;;0.60;;
826;SDS011;395;48.132;11.608;2022-12-22T07:44:37;0.97;;;0.80;;
826;SDS011;395;48.132;11.608;2022-12-22T07:47:03;0.97;;;0.50;;
826;SDS011;395;48.132;11.608;2022-12-22T07:49:28;1.37;;;0.80;;
826;SDS011;395;48.132;11.608;2022-12-22T07:52:13;1.67;;;0.80;;
826;SDS011;395;48.132;11.608;2022-12-22T07:54:38;2.97;;;0.90;;
826;SDS011;395;48.132;11.608;2022-12-22T07:57:04;1.43;;;1.17;;
826;SDS011;395;48.132;11.608;2022-12-22T07:59:30;1.00;;;0.90;;
826;SDS011;395;48.132;11.608;2022-12-22T08:01:55;2.47;;;1.00;;
826;SDS011;395;48.132;11.608;2022-12-22T08:04:21;0.93;;;0.80;;
826;SDS011;395;48.132;11.608;2022-12-22T08:06:49;2.77;;;1.20;;
826;SDS011;395;48.132;11.608;2022-12-22T08:09:15;2.00;;;0.80;;
826;SDS011;395;48.132;11.608;2022-12-22T08:11:42;2.30;;;1.20;;
826;SDS011;395;48.132;11.608;2022-12-22T08:14:07;2.40;;;1.00;;
826;SDS011;395;48.132;11.608;2022-12-22T08:16:33;2.00;;;1.20;;
826;SDS011;395;48.132;11.608;2022-12-22T08:18:59;3.10;;;1.20;;
826;SDS011;395;48.132;11.608;2022-12-22T08:21:25;2.70;;;0.90;;
826;SDS011;395;48.132;11.608;2022-12-22T08:23:50;0.93;;;0.80;;
826;SDS011;395;48.132;11.608;2022-12-22T08:26:21;2.90;;;0.80;;
826;SDS011;395;48.132;11.608;2022-12-22T08:28:59;3.17;;;0.70;;
826;SDS011;395;48.132;11.608;2022-12-22T08:31:32;2.03;;;0.85;;
826;SDS011;395;48.132;11.608;2022-12-22T08:33:58;1.00;;;0.70;;
826;SDS011;395;48.132;11.608;2022-12-22T08:36:29;0.60;;;0.50;;
826;SDS011;395;48.132;11.608;2022-12-22T08:38:58;2.80;;;0.87;;
826;SDS011;395;48.132;11.608;2022-12-22T08:41:26;1.23;;;0.80;;
826;SDS011;395;48.132;11.608;2022-12-22T08:44:11;2.97;;;1.10;;
826;SDS011;395;48.132;11.608;2022-12-22T08:46:37;0.93;;;0.70;;
826;SDS011;395;48.132;11.608;2022-12-22T08:49:02;1.00;;;0.70;;
826;SDS011;395;48.132;11.608;2022-12-22T08:51:28;1.80;;;0.80;;
826;SDS011;395;48.132;11.608;2022-12-22T08:53:54;2.63;;;0.90;;
826;SDS011;395;48.132;11.608;2022-12-22T08:56:19;1.77;;;0.70;;
826;SDS011;395;48.132;11.608;2022-12-22T08:58:45;1.60;;;0.80;;
826;SDS011;395;48.132;11.608;2022-12-22T09:01:17;3.37;;;1.00;;
826;SDS011;395;48.132;11.608;2022-12-22T09:03:51;3.20;;;1.63;;
826;SDS011;395;48.132;11.608;2022-12-22T09:06:18;2.80;;;1.30;;
826;SDS011;395;48.132;11.608;2022-12-22T09:08:45;2.50;;;1.20;;
826;SDS011;395;48.132;11.608;2022-12-22T09:11:12;2.30;;;0.87;;
826;SDS011;395;48.132;11.608;2022-12-22T09:13:43;2.60;;;0.93;;
826;SDS011;395;48.132;11.608;2022-12-22T09:16:12;4.90;;;0.87;;
826;SDS011;395;48.132;11.608;2022-12-22T09:18:37;7.43;;;0.90;;
826;SDS011;395;48.132;11.608;2022-12-22T09:21:03;1.20;;;0.70;;
826;SDS011;395;48.132;11.608;2022-12-22T09:23:29;2.80;;;1.23;;
826;SDS011;395;48.132;11.608;2022-12-22T09:25:55;2.13;;;1.00;;
826;SDS011;395;48.132;11.608;2022-12-22T09:28:21;1.30;;;0.80;;
826;SDS011;395;48.132;11.608;2022-12-22T09:30:50;0.83;;;0.80;;
826;SDS011;395;48.132;11.608;2022-12-22T09:33:16;1.60;;;0.80;;
826;SDS011;395;48.132;11.608;2022-12-22T09:35:42;2.03;;;1.13;;
826;SDS011;395;48.132;11.608;2022-12-22T09:38:08;2.63;;;0.73;;
826;SDS011;395;48.132;11.608;2022-12-22T09:40:34;1.10;;;0.67;;
826;SDS011;395;48.132;11.608;2022-12-22T09:43:00;2.27;;;0.80;;
826;SDS011;395;48.132;11.608;2022-12-22T09:45:27;5.40;;;1.07;;
826;SDS011;395;48.132;11.608;2022-12-22T09:47:53;2.80;;;1.33;;
826;SDS011;395;48.132;11.608;2022-12-22T09:50:20;1.77;;;0.90;;
826;SDS011;395;48.132;11.608;2022-12-22T09:52:50;3.07;;;1.30;;
826;SDS011;395;48.132;11.608;2022-12-22T09:57:50;2.70;;;1.20;;
826;SDS011;395;48.132;11.608;2022-12-22T10:00:19;3.20;;;0.93;;
826;SDS011;395;48.132;11.608;2022-12-22T10:08:26;2.17;;;1.00;;
826;SDS011;395;48.132;11.608;2022-12-22T10:10:54;4.13;;;0.90;;
826;SDS011;395;48.132;11.608;2022-12-22T10:13:20;3.30;;;1.10;;
826;SDS011;395;48.132;11.608;2022-12-22T10:15:46;1.37;;;0.70;;
826;SDS011;395;48.132;11.608;2022-12-22T10:18:17;1.57;;;1.00;;
826;SDS011;395;48.132;11.608;2022-12-22T10:20:46;2.00;;;0.70;;
826;SDS011;395;48.132;11.608;2022-12-22T10:23:30;6.00;;;1.33;;
826;SDS011;395;48.132;11.608;2022-12-22T10:26:04;1.37;;;0.97;;
826;SDS011;395;48.132;11.608;2022-12-22T10:28:33;2.17;;;0.80;;
826;SDS011;395;48.132;11.608;2022-12-22T10:31:13;2.10;;;0.70;;
826;SDS011;395;48.132;11.608;2022-12-22T10:33:39;1.90;;;1.07;;
826;SDS011;395;48.132;11.608;2022-12-22T10:36:05;1.87;;;1.10;;
826;SDS011;395;48.132;11.608;2022-12-22T10:38:33;2.07;;;1.00;;
826;SDS011;395;48.132;11.608;2022-12-22T10:41:14;2.03;;;1.10;;
826;SDS011;395;48.132;11.608;2022-12-22T10:43:47;1.57;;;0.90;;
826;SDS011;395;48.132;11.608;2022-12-22T10:46:29;3.00;;;1.73;;
826;SDS011;395;48.132;11.608;2022-12-22T10:49:10;1.90;;;1.00;;
826;SDS011;395;48.132;11.608;2022-12-22T10:51:37;3.80;;;1.00;;
826;SDS011;395;48.132;11.608;2022-12-22T10:54:04;3.30;;;1.23;;
826;SDS011;395;48.132;11.608;2022-12-22T10:56:31;2.20;;;1.00;;
826;SDS011;395;48.132;11.608;2022-12-22T11:06:54;4.30;;;1.10;;
826;SDS011;395;48.132;11.608;2022-12-22T11:09:23;1.10;;;0.70;;
826;SDS011;395;48.132;11.608;2022-12-22T11:11:56;2.10;;;1.07;;
826;SDS011;395;48.132;11.608;2022-12-22T11:14:34;4.10;;;1.90;;
826;SDS011;395;48.132;11.608;2022-12-22T11:30:44;1.70;;;0.80;;
826;SDS011;395;48.132;11.608;2022-12-22T11:33:24;2.93;;;1.00;;
826;SDS011;395;48.132;11.608;2022-12-22T11:36:03;2.73;;;1.10;;
826;SDS011;395;48.132;11.608;2022-12-22T11:38:47;2.60;;;0.93;;
826;SDS011;395;48.132;11.608;2022-12-22T11:46:26;2.90;;;1.30;;
826;SDS011;395;48.132;11.608;2022-12-22T11:49:21;1.70;;;0.90;;
826;SDS011;395;48.132;11.608;2022-12-22T11:57:53;3.30;;;1.20;;
826;SDS011;395;48.132;11.608;2022-12-22T12:00:42;3.90;;;1.40;;
826;SDS011;395;48.132;11.608;2022-12-22T12:09:26;3.00;;;0.90;;
826;SDS011;395;48.132;11.608;2022-12-22T12:12:21;4.77;;;1.00;;
826;SDS011;395;48.132;11.608;2022-12-22T12:15:15;6.03;;;1.13;;
826;SDS011;395;48.132;11.608;2022-12-22T12:20:53;3.70;;;1.20;;
826;SDS011;395;48.132;11.608;2022-12-22T12:26:07;5.50;;;1.33;;
826;SDS011;395;48.132;11.608;2022-12-22T12:28:43;3.60;;;1.00;;
826;SDS011;395;48.132;11.608;2022-12-22T12:32:20;4.10;;;1.10;;
826;SDS011;395;48.132;11.608;2022-12-22T12:34:34;5.60;;;1.40;;
826;SDS011;395;48.132;11.608;2022-12-22T12:37:11;4.30;;;1.23;;
826;SDS011;395;48.132;11.608;2022-12-22T12:39:39;2.40;;;1.10;;
826;SDS011;395;48.132;11.608;2022-12-22T12:42:40;4.33;;;1.50;;
826;SDS011;395;48.132;11.608;2022-12-22T12:50:44;4.80;;;1.27;;
826;SDS011;395;48.132;11.608;2022-12-22T12:53:14;6.10;;;1.53;;
826;SDS011;395;48.132;11.608;2022-12-22T13:03:44;2.10;;;1.10;;
826;SDS011;395;48.132;11.608;2022-12-22T13:06:10;3.83;;;0.93;;
826;SDS011;395;48.132;11.608;2022-12-22T13:09:15;3.63;;;1.20;;
826;SDS011;395;48.132;11.608;2022-12-22T13:11:47;3.70;;;1.20;;
826;SDS011;395;48.132;11.608;2022-12-22T13:20:13;4.40;;;1.73;;
826;SDS011;395;48.132;11.608;2022-12-22T13:22:52;3.80;;;1.77;;
826;SDS011;395;48.132;11.608;2022-12-22T13:25:19;4.10;;;1.00;;
826;SDS011;395;48.132;11.608;2022-12-22T13:27:47;4.53;;;1.03;;
826;SDS011;395;48.132;11.608;2022-12-22T13:30:15;2.20;;;1.20;;
826;SDS011;395;48.132;11.608;2022-12-22T13:32:44;11.13;;;1.70;;
826;SDS011;395;48.132;11.608;2022-12-22T13:35:22;4.93;;;1.43;;
826;SDS011;395;48.132;11.608;2022-12-22T13:38:03;4.00;;;1.17;;
826;SDS011;395;48.132;11.608;2022-12-22T13:40:29;3.70;;;1.43;;
826;SDS011;395;48.132;11.608;2022-12-22T13:43:09;4.20;;;2.03;;
826;SDS011;395;48.132;11.608;2022-12-22T13:48:06;3.40;;;1.50;;
826;SDS011;395;48.132;11.608;2022-12-22T13:53:24;4.80;;;1.40;;
826;SDS011;395;48.132;11.608;2022-12-22T13:55:56;3.87;;;1.30;;
826;SDS011;395;48.132;11.608;2022-12-22T13:58:29;5.23;;;2.33;;
826;SDS011;395;48.132;11.608;2022-12-22T14:01:00;4.70;;;2.30;;
826;SDS011;395;48.132;11.608;2022-12-22T14:03:28;6.10;;;1.70;;
826;SDS011;395;48.132;11.608;2022-12-22T14:05:54;5.37;;;1.40;;
826;SDS011;395;48.132;11.608;2022-12-22T14:08:22;4.83;;;1.60;;
826;SDS011;395;48.132;11.608;2022-12-22T14:10:51;4.57;;;1.40;;
826;SDS011;395;48.132;11.608;2022-12-22T14:13:19;3.50;;;1.57;;
826;SDS011;395;48.132;11.608;2022-12-22T14:15:47;4.30;;;1.60;;
826;SDS011;395;48.132;11.608;2022-12-22T14:18:27;5.60;;;2.03;;
826;SDS011;395;48.132;11.608;2022-12-22T14:20:53;7.33;;;1.67;;
826;SDS011;395;48.132;11.608;2022-12-22T14:23:25;5.90;;;2.43;;
826;SDS011;395;48.132;11.608;2022-12-22T14:25:57;3.57;;;1.97;;
826;SDS011;395;48.132;11.608;2022-12-22T14:30:58;3.70;;;1.40;;
826;SDS011;395;48.132;11.608;2022-12-22T14:33:26;8.97;;;1.60;;
826;SDS011;395;48.132;11.608;2022-12-22T14:38:44;4.27;;;1.93;;
826;SDS011;395;48.132;11.608;2022-12-22T14:44:04;7.70;;;1.60;;
826;SDS011;395;48.132;11.608;2022-12-22T14:46:36;7.30;;;2.03;;
826;SDS011;395;48.132;11.608;2022-12-22T14:49:01;6.13;;;1.73;;
826;SDS011;395;48.132;11.608;2022-12-22T14:51:27;8.23;;;2.90;;
826;SDS011;395;48.132;11.608;2022-12-22T14:53:56;6.17;;;1.93;;
826;SDS011;395;48.132;11.608;2022-12-22T14:56:24;8.00;;;1.80;;
826;SDS011;395;48.132;11.608;2022-12-22T14:58:51;7.17;;;2.53;;
826;SDS011;395;48.132;11.608;2022-12-22T15:01:33;6.17;;;1.83;;
826;SDS011;395;48.132;11.608;2022-12-22T15:04:18;7.43;;;2.30;;
826;SDS011;395;48.132;11.608;2022-12-22T15:06:47;3.40;;;1.60;;
826;SDS011;395;48.132;11.608;2022-12-22T15:11:43;9.23;;;1.60;;
826;SDS011;395;48.132;11.608;2022-12-22T15:14:13;5.70;;;1.50;;
826;SDS011;395;48.132;11.608;2022-12-22T15:16:41;4.40;;;1.30;;
826;SDS011;395;48.132;11.608;2022-12-22T15:19:09;5.60;;;1.90;;
826;SDS011;395;48.132;11.608;2022-12-22T15:21:38;8.30;;;1.73;;
826;SDS011;395;48.132;11.608;2022-12-22T15:24:09;6.63;;;1.87;;
826;SDS011;395;48.132;11.608;2022-12-22T15:26:36;5.30;;;1.87;;
826;SDS011;395;48.132;11.608;2022-12-22T15:29:02;7.23;;;2.00;;
826;SDS011;395;48.132;11.608;2022-12-22T15:31:27;6.40;;;1.97;;
826;SDS011;395;48.132;11.608;2022-12-22T15:33:55;5.33;;;1.60;;
826;SDS011;395;48.132;11.608;2022-12-22T15:36:23;6.63;;;2.20;;
826;SDS011;395;48.132;11.608;2022-12-22T15:38:49;7.10;;;1.77;;
826;SDS011;395;48.132;11.608;2022-12-22T15:41:15;4.73;;;2.40;;
826;SDS011;395;48.132;11.608;2022-12-22T15:43:41;4.73;;;2.33;;
826;SDS011;395;48.132;11.608;2022-12-22T15:46:06;4.43;;;1.33;;
826;SDS011;395;48.132;11.608;2022-12-22T15:48:38;9.33;;;2.10;;
826;SDS011;395;48.132;11.608;2022-12-22T15:51:05;5.10;;;1.90;;
826;SDS011;395;48.132;11.608;2022-12-22T15:53:33;5.57;;;2.03;;
826;SDS011;395;48.132;11.608;2022-12-22T15:56:00;4.90;;;1.70;;
826;SDS011;395;48.132;11.608;2022-12-22T15:58:29;8.50;;;2.20;;
826;SDS011;395;48.132;11.608;2022-12-22T16:00:56;4.87;;;1.70;;
826;SDS011;395;48.132;11.608;2022-12-22T16:03:22;8.33;;;7.13;;
826;SDS011;395;48.132;11.608;2022-12-22T16:05:48;6.33;;;2.30;;
826;SDS011;395;48.132;11.608;2022-12-22T16:08:14;6.10;;;2.00;;
826;SDS011;395;48.132;11.608;2022-12-22T16:10:44;5.20;;;1.57;;
826;SDS011;395;48.132;11.608;2022-12-22T16:13:11;4.27;;;1.50;;
826;SDS011;395;48.132;11.608;2022-12-22T16:15:47;4.97;;;2.83;;
826;SDS011;395;48.132;11.608;2022-12-22T16:18:13;6.10;;;2.20;;
826;SDS011;395;48.132;11.608;2022-12-22T16:20:39;3.33;;;1.60;;
826;SDS011;395;48.132;11.608;2022-12-22T16:23:09;5.20;;;1.53;;
826;SDS011;395;48.132;11.608;2022-12-22T16:25:38;3.80;;;1.63;;
826;SDS011;395;48.132;11.608;2022-12-22T16:28:04;6.80;;;2.00;;
826;SDS011;395;48.132;11.608;2022-12-22T16:30:31;4.93;;;1.90;;
826;SDS011;395;48.132;11.608;2022-12-22T16:32:58;4.23;;;1.53;;
826;SDS011;395;48.132;11.608;2022-12-22T16:35:25;2.90;;;1.30;;
826;SDS011;395;48.132;11.608;2022-12-22T16:37:56;5.93;;;1.90;;
826;SDS011;395;48.132;11.608;2022-12-22T16:40:23;4.00;;;1.87;;
826;SDS011;395;48.132;11.608;2022-12-22T16:42:51;3.80;;;1.60;;
826;SDS011;395;48.132;11.608;2022-12-22T16:45:27;3.67;;;1.60;;
826;SDS011;395;48.132;11.608;2022-12-22T16:47:57;2.17;;;1.53;;
826;SDS011;395;48.132;11.608;2022-12-22T16:50:25;6.30;;;1.40;;
826;SDS011;395;48.132;11.608;2022-12-22T16:52:59;6.00;;;1.80;;
826;SDS011;395;48.132;11.608;2022-12-22T16:55:26;4.23;;;1.70;;
826;SDS011;395;48.132;11.608;2022-12-22T16:57:52;3.03;;;1.80;;
826;SDS011;395;48.132;11.608;2022-12-22T17:00:19;5.47;;;2.10;;
826;SDS011;395;48.132;11.608;2022-12-22T17:02:50;3.43;;;1.97;;
826;SDS011;395;48.132;11.608;2022-12-22T17:05:27;4.53;;;1.87;;
826;SDS011;395;48.132;11.608;2022-12-22T17:08:05;6.10;;;1.60;;
826;SDS011;395;48.132;11.608;2022-12-22T17:10:33;7.67;;;1.97;;
826;SDS011;395;48.132;11.608;2022-12-22T17:12:59;4.00;;;1.73;;
826;SDS011;395;48.132;11.608;2022-12-22T17:15:26;6.37;;;1.63;;
826;SDS011;395;48.132;11.608;2022-12-22T17:17:52;4.33;;;1.60;;
826;SDS011;395;48.132;11.608;2022-12-22T17:20:22;4.17;;;1.77;;
826;SDS011;395;48.132;11.608;2022-12-22T17:23:01;3.10;;;1.40;;
826;SDS011;395;48.132;11.608;2022-12-22T17:25:28;5.30;;;1.70;;
826;SDS011;395;48.132;11.608;2022-12-22T17:27:55;5.03;;;1.87;;
826;SDS011;395;48.132;11.608;2022-12-22T17:30:22;4.20;;;1.80;;
826;SDS011;395;48.132;11.608;2022-12-22T17:32:49;5.33;;;1.70;;
826;SDS011;395;48.132;11.608;2022-12-22T17:35:18;7.43;;;2.10;;
826;SDS011;395;48.132;11.608;2022-12-22T17:37:46;4.70;;;1.80;;
826;SDS011;395;48.132;11.608;2022-12-22T17:40:28;3.70;;;2.00;;
826;SDS011;395;48.132;11.608;2022-12-22T17:42:58;3.27;;;1.60;;
826;SDS011;395;48.132;11.608;2022-12-22T17:45:24;4.80;;;2.00;;
826;SDS011;395;48.132;11.608;2022-12-22T17:47:49;7.30;;;2.63;;
826;SDS011;395;48.132;11.608;2022-12-22T17:50:16;4.87;;;2.07;;
826;SDS011;395;48.132;11.608;2022-12-22T17:52:44;4.97;;;1.97;;
826;SDS011;395;48.132;11.608;2022-12-22T17:55:21;5.40;;;1.60;;
826;SDS011;395;48.132;11.608;2022-12-22T17:57:51;4.57;;;1.70;;
826;SDS011;395;48.132;11.608;2022-12-22T18:02:52;5.67;;;1.70;;
826;SDS011;395;48.132;11.608;2022-12-22T18:05:19;3.40;;;1.73;;
826;SDS011;395;48.132;11.608;2022-12-22T18:07:46;4.60;;;1.97;;